Time;durP1;ratioP1;P1;durP2;ratioP2;P2;SDS_P1;SDS_P2;PMS_P1;PMS_P2;Temp;Humidity;BMP_temperature;BMP_pressure;BME280_temperature;BME280_humidity;BME280_pressure;Samples;Min_cycle;Max_cycle;Signal;HPM_P1;HPM_P2
2022/06/09 00:01:55;;;;;;;;;;;;;;;22.59;62.05;98983.97;4353129;32;20047;-85
2022/06/09 00:04:24;;;;;;;;;;;;;;;22.70;61.63;98997.50;4347942;32;19984;-84
2022/06/09 00:06:53;;;;;;;;;;;;;;;22.66;61.71;98985.41;4367571;32;19988;-85
2022/06/09 00:09:20;;;;;;;;;;;;;;;22.66;62.12;98990.66;4364873;32;19994;-85
2022/06/09 00:11:49;;;;;;;;;;;;;;;22.55;62.55;98998.22;4362977;32;20003;-84
2022/06/09 00:14:15;;;;;;;;;;;;;;;22.77;61.24;99002.50;4343875;32;20052;-85
2022/06/09 00:16:43;;;;;;;;;;;;;;;22.56;61.97;98999.94;4362013;32;19992;-84
2022/06/09 00:19:10;;;;;;;;;;;;;;;22.32;62.76;99006.34;4326274;32;20050;-84
2022/06/09 00:21:37;;;;;;;;;;;;;;;22.39;62.61;99002.50;4367249;32;20006;-83
2022/06/09 00:24:04;;;;;;;;;;;;;;;22.51;62.48;99001.94;4369617;32;19987;-84
2022/06/09 00:26:31;;;;;;;;;;;;;;;22.61;62.43;98999.72;4369225;32;20095;-83
2022/06/09 00:28:59;;;;;;;;;;;;;;;22.58;62.39;98995.44;4347338;32;19971;-83
2022/06/09 00:31:26;;;;;;;;;;;;;;;22.55;62.53;98998.22;4339802;33;20352;-85
2022/06/09 00:33:53;;;;;;;;;;;;;;;22.54;62.67;98988.59;4366264;32;20001;-86
2022/06/09 00:36:20;;;;;;;;;;;;;;;22.52;62.79;98985.16;4347981;32;20003;-85
2022/06/09 00:38:46;;;;;;;;;;;;;;;22.53;62.81;98984.25;4341692;32;19976;-84
2022/06/09 00:41:13;;;;;;;;;;;;;;;22.65;62.06;98986.31;4341312;32;19976;-84
2022/06/09 00:43:40;;;;;;;;;;;;;;;22.50;62.78;98990.53;4346600;32;20775;-84
2022/06/09 00:46:16;;;;;;;;;;;;;;;22.58;62.46;98984.88;4344755;32;19999;-85
2022/06/09 00:48:45;;;;;;;;;;;;;;;22.42;63.32;98984.75;4367447;32;20067;-86
2022/06/09 00:51:11;;;;;;;;;;;;;;;22.39;63.42;98984.03;4347114;32;19972;-85
2022/06/09 00:53:38;;;;;;;;;;;;;;;22.38;63.44;98983.19;4345879;32;19979;-85
2022/06/09 00:56:06;;;;;;;;;;;;;;;22.46;62.99;98985.44;4379936;32;20357;-85
2022/06/09 00:58:33;;;;;;;;;;;;;;;22.34;63.23;98980.78;4373669;32;20030;-84
2022/06/09 01:01:01;;;;;;;;;;;;;;;22.23;63.46;98981.25;4342863;32;20038;-85
2022/06/09 01:03:29;;;;;;;;;;;;;;;22.35;63.15;98990.38;4370640;32;20005;-85
2022/06/09 01:06:00;;;;;;;;;;;;;;;22.42;62.81;98997.94;4341841;32;19991;-85
2022/06/09 01:08:28;;;;;;;;;;;;;;;22.37;63.18;98989.38;4340097;32;20035;-86
2022/06/09 01:10:55;;;;;;;;;;;;;;;22.48;62.74;98992.38;4355841;32;19980;-89
2022/06/09 01:13:22;;;;;;;;;;;;;;;22.59;62.42;98981.34;4350122;32;19987;-88
2022/06/09 01:15:55;;;;;;;;;;;;;;;22.41;63.08;98984.81;4379375;32;19983;-90
2022/06/09 01:18:25;;;;;;;;;;;;;;;22.20;63.82;98987.50;4374740;32;19990;-87
2022/06/09 01:21:04;;;;;;;;;;;;;;;22.27;63.51;98988.97;4344360;32;20031;-84
2022/06/09 01:23:32;;;;;;;;;;;;;;;22.30;63.46;98987.94;4350921;32;19982;-85
2022/06/09 01:26:03;;;;;;;;;;;;;;;22.18;64.14;98986.72;4349950;32;20003;-85
2022/06/09 01:28:32;;;;;;;;;;;;;;;22.31;63.47;98981.75;4371847;32;20396;-85
2022/06/09 01:31:04;;;;;;;;;;;;;;;22.25;63.37;98974.97;4341572;32;19997;-85
2022/06/09 01:33:37;;;;;;;;;;;;;;;22.55;62.45;98963.06;4364056;32;19987;-88
2022/06/09 01:36:09;;;;;;;;;;;;;;;22.50;62.51;98958.03;4366185;32;20045;-85
2022/06/09 01:38:49;;;;;;;;;;;;;;;22.47;62.87;98960.81;4364160;32;20034;-86
2022/06/09 01:41:16;;;;;;;;;;;;;;;22.47;62.89;98968.72;4367976;32;19987;-86
2022/06/09 01:43:43;;;;;;;;;;;;;;;22.46;62.87;98967.00;4345604;32;20043;-87
2022/06/09 01:46:11;;;;;;;;;;;;;;;22.43;62.63;98970.66;4340987;32;19991;-86
2022/06/09 01:48:39;;;;;;;;;;;;;;;22.34;62.96;98967.59;4364078;32;20475;-87
2022/06/09 01:51:07;;;;;;;;;;;;;;;22.47;62.49;98963.44;4367947;32;19992;-85
2022/06/09 01:53:34;;;;;;;;;;;;;;;22.45;62.30;98967.94;4374371;32;20016;-85
2022/06/09 01:56:09;;;;;;;;;;;;;;;22.44;62.21;98971.50;4379450;32;19987;-88
2022/06/09 01:58:41;;;;;;;;;;;;;;;22.37;62.31;98967.44;4379490;32;20034;-84
2022/06/09 02:01:08;;;;;;;;;;;;;;;22.17;63.06;98971.81;4372689;32;19983;-85
2022/06/09 02:03:37;;;;;;;;;;;;;;;22.21;63.04;98968.16;4367010;32;20002;-86
2022/06/09 02:06:04;;;;;;;;;;;;;;;22.16;63.26;98964.84;4369618;32;19983;-85
2022/06/09 02:08:32;;;;;;;;;;;;;;;22.06;63.54;98966.16;4360974;32;20901;-85
2022/06/09 02:10:59;;;;;;;;;;;;;;;22.22;63.00;98969.00;4364226;32;19979;-86
2022/06/09 02:13:28;;;;;;;;;;;;;;;22.15;63.07;98980.72;4361898;32;19991;-86
2022/06/09 02:15:56;;;;;;;;;;;;;;;22.25;62.67;98969.69;4341254;32;19999;-85
2022/06/09 02:18:24;;;;;;;;;;;;;;;22.24;62.74;98981.19;4363679;32;19979;-85
2022/06/09 02:20:56;;;;;;;;;;;;;;;22.14;63.75;98976.34;4340248;33;20031;-84
2022/06/09 02:23:24;;;;;;;;;;;;;;;22.34;63.08;98964.94;4342777;32;20046;-85
2022/06/09 02:25:50;;;;;;;;;;;;;;;22.38;63.01;98969.16;4349064;32;20352;-85
2022/06/09 02:28:17;;;;;;;;;;;;;;;22.25;63.26;98967.06;4339908;32;19986;-87
2022/06/09 02:30:44;;;;;;;;;;;;;;;22.29;63.12;98971.25;4340711;32;19996;-86
2022/06/09 02:33:16;;;;;;;;;;;;;;;22.47;62.06;98969.56;4319348;32;20006;-85
2022/06/09 02:35:46;;;;;;;;;;;;;;;22.47;62.00;98974.00;4370076;32;20490;-85
2022/06/09 02:38:13;;;;;;;;;;;;;;;22.42;62.32;98973.34;4364181;32;20003;-85
2022/06/09 02:40:40;;;;;;;;;;;;;;;22.47;62.26;98971.34;4331021;32;19988;-86
2022/06/09 02:43:07;;;;;;;;;;;;;;;22.40;62.52;98968.16;4349354;32;20820;-87
2022/06/09 02:45:35;;;;;;;;;;;;;;;22.42;62.44;98965.44;4350633;32;19983;-86
2022/06/09 02:48:02;;;;;;;;;;;;;;;22.27;62.89;98966.97;4355946;32;20049;-87
2022/06/09 02:50:29;;;;;;;;;;;;;;;22.27;62.82;98977.53;4348802;32;19984;-85
2022/06/09 02:52:57;;;;;;;;;;;;;;;22.26;62.77;98971.41;4328296;32;20356;-86
2022/06/09 02:55:24;;;;;;;;;;;;;;;22.32;62.57;98972.06;4340968;32;19984;-86
2022/06/09 02:57:51;;;;;;;;;;;;;;;22.35;62.55;98974.56;4357592;32;20006;-88
2022/06/09 03:00:18;;;;;;;;;;;;;;;22.18;63.03;98989.38;4360453;32;19999;-88
2022/06/09 03:02:55;;;;;;;;;;;;;;;22.24;62.83;98989.09;4363990;32;20005;-85
2022/06/09 03:05:22;;;;;;;;;;;;;;;22.33;62.67;98981.66;4363865;32;20047;-86
2022/06/09 03:07:49;;;;;;;;;;;;;;;22.41;62.17;98982.19;4363874;32;20317;-86
2022/06/09 03:10:16;;;;;;;;;;;;;;;22.39;62.13;98976.12;4364034;32;20002;-87
2022/06/09 03:12:44;;;;;;;;;;;;;;;22.27;62.68;98977.53;4351044;32;20003;-85
2022/06/09 03:15:11;;;;;;;;;;;;;;;22.24;62.87;98978.56;4364158;32;19997;-89
2022/06/09 03:17:38;;;;;;;;;;;;;;;22.20;63.29;98971.69;4363720;32;19999;-90
2022/06/09 03:20:06;;;;;;;;;;;;;;;22.43;62.75;98982.97;4363370;32;19995;-86
2022/06/09 03:22:33;;;;;;;;;;;;;;;22.43;63.24;98977.69;4348826;32;20010;-86
2022/06/09 03:25:00;;;;;;;;;;;;;;;22.43;63.13;98977.69;4347907;32;19995;-87
2022/06/09 03:27:28;;;;;;;;;;;;;;;22.55;62.81;98982.38;4371424;32;20317;-88
2022/06/09 03:29:55;;;;;;;;;;;;;;;22.50;63.29;98979.13;4369558;32;20046;-85
2022/06/09 03:32:22;;;;;;;;;;;;;;;22.64;63.22;98974.06;4365091;32;20033;-87
2022/06/09 03:34:49;;;;;;;;;;;;;;;22.51;63.88;98971.13;4350508;32;19997;-88
2022/06/09 03:37:16;;;;;;;;;;;;;;;22.52;64.05;98971.97;4344094;32;20042;-90
2022/06/09 03:39:43;;;;;;;;;;;;;;;22.66;63.98;98980.13;4348447;32;20321;-86
2022/06/09 03:42:10;;;;;;;;;;;;;;;22.73;63.80;98981.53;4365550;32;19995;-89
2022/06/09 03:44:37;;;;;;;;;;;;;;;22.61;64.26;98974.19;4341867;32;19994;-89
2022/06/09 03:47:05;;;;;;;;;;;;;;;22.49;64.97;98972.13;4367259;32;19996;-87
2022/06/09 03:49:32;;;;;;;;;;;;;;;22.58;64.76;98971.69;4348588;32;19988;-86
2022/06/09 03:51:59;;;;;;;;;;;;;;;22.74;64.56;98977.09;4343589;32;19979;-86
2022/06/09 03:54:25;;;;;;;;;;;;;;;22.81;64.46;98972.37;4353821;32;20014;-86
2022/06/09 03:56:52;;;;;;;;;;;;;;;22.81;64.56;98967.13;4357278;32;19979;-87
2022/06/09 03:59:19;;;;;;;;;;;;;;;22.93;64.28;98977.09;4363160;32;19987;-87
2022/06/09 04:01:46;;;;;;;;;;;;;;;22.94;64.35;98973.53;4365526;32;20325;-87
2022/06/09 04:04:13;;;;;;;;;;;;;;;23.01;64.17;98980.25;4354474;32;20389;-86
2022/06/09 04:06:40;;;;;;;;;;;;;;;23.05;64.12;98976.53;4371994;32;19976;-86
2022/06/09 04:09:07;;;;;;;;;;;;;;;23.05;64.24;98975.69;4353141;32;20599;-88
2022/06/09 04:11:34;;;;;;;;;;;;;;;23.16;63.77;98976.84;4359505;32;19992;-86
2022/06/09 04:14:01;;;;;;;;;;;;;;;23.15;64.24;98971.66;4364893;32;20043;-88
2022/06/09 04:16:29;;;;;;;;;;;;;;;23.24;63.74;98970.34;4372089;32;20010;-87
2022/06/09 04:18:59;;;;;;;;;;;;;;;23.15;63.67;98967.22;4377511;32;20014;-89
2022/06/09 04:21:27;;;;;;;;;;;;;;;23.32;63.12;98968.16;4368919;32;19983;-88
2022/06/09 04:23:54;;;;;;;;;;;;;;;23.27;63.60;98970.19;4376365;32;20005;-89
2022/06/09 04:26:23;;;;;;;;;;;;;;;23.24;63.84;98972.97;4372478;32;20005;-88
2022/06/09 04:28:50;;;;;;;;;;;;;;;23.42;63.45;98974.69;4371668;32;19988;-89
2022/06/09 04:31:17;;;;;;;;;;;;;;;23.47;63.05;98977.97;4352737;32;19983;-86
2022/06/09 04:33:44;;;;;;;;;;;;;;;23.59;62.73;98982.63;4340731;32;20001;-87
2022/06/09 04:36:12;;;;;;;;;;;;;;;23.45;63.33;98985.09;4372656;32;20039;-86
2022/06/09 04:38:39;;;;;;;;;;;;;;;23.47;63.13;98983.25;4364617;32;20039;-88
2022/06/09 04:41:09;;;;;;;;;;;;;;;23.51;63.02;98990.06;4365462;32;19979;-88
2022/06/09 04:43:37;;;;;;;;;;;;;;;23.48;63.15;98995.50;4348294;32;19983;-89
2022/06/09 04:46:04;;;;;;;;;;;;;;;23.53;62.98;98993.50;4343698;32;20420;-88
2022/06/09 04:48:33;;;;;;;;;;;;;;;23.62;62.44;98998.31;4350518;32;20270;-88
2022/06/09 04:51:00;;;;;;;;;;;;;;;23.66;62.45;99005.16;4352240;32;20003;-88
2022/06/09 04:53:27;;;;;;;;;;;;;;;23.66;62.34;99010.44;4361158;32;20025;-88
2022/06/09 04:55:54;;;;;;;;;;;;;;;23.67;62.48;99006.88;4333644;33;19979;-88
2022/06/09 04:58:21;;;;;;;;;;;;;;;23.58;63.13;99004.69;4349623;32;20011;-89
2022/06/09 05:00:48;;;;;;;;;;;;;;;23.67;62.96;99006.88;4337089;33;19993;-89
2022/06/09 05:03:15;;;;;;;;;;;;;;;23.75;63.05;99008.31;4361813;32;20005;-87
2022/06/09 05:05:43;;;;;;;;;;;;;;;23.80;63.19;99007.12;4340772;32;20039;-87
2022/06/09 05:08:13;;;;;;;;;;;;;;;23.86;62.78;99000.66;4362705;32;19991;-87
2022/06/09 05:10:41;;;;;;;;;;;;;;;23.65;64.21;99010.53;4351394;32;20009;-87
2022/06/09 05:13:08;;;;;;;;;;;;;;;23.81;63.63;99010.63;4362060;32;20039;-85
2022/06/09 05:15:36;;;;;;;;;;;;;;;23.93;62.53;99007.38;4360867;32;20011;-84
2022/06/09 05:18:04;;;;;;;;;;;;;;;23.94;62.82;99003.78;4351187;32;19996;-86
2022/06/09 05:20:32;;;;;;;;;;;;;;;24.02;62.78;99004.22;4361379;32;20001;-85
2022/06/09 05:23:00;;;;;;;;;;;;;;;23.91;62.53;99006.56;4359953;32;20039;-87
2022/06/09 05:25:27;;;;;;;;;;;;;;;24.12;61.89;99012.50;4345865;32;19990;-86
2022/06/09 05:27:54;;;;;;;;;;;;;;;23.96;61.81;99007.16;4360618;32;19991;-85
2022/06/09 05:30:22;;;;;;;;;;;;;;;24.14;61.76;99016.78;4322670;32;19971;-85
2022/06/09 05:32:49;;;;;;;;;;;;;;;24.23;62.03;99019.91;4351383;32;19988;-85
2022/06/09 05:35:16;;;;;;;;;;;;;;;24.27;62.52;99029.38;4365810;32;19987;-85
2022/06/09 05:46:01;;;;;;;;;;;;;;;24.36;61.14;99031.53;4348523;32;19983;-85
2022/06/09 05:48:27;;;;;;;;;;;;;;;24.35;60.52;99035.13;4350498;32;19979;-85
2022/06/09 05:50:54;;;;;;;;;;;;;;;24.58;59.42;99037.41;4350526;32;19991;-86
2022/06/09 05:53:21;;;;;;;;;;;;;;;24.58;59.83;99032.09;4348451;32;20285;-86
2022/06/09 05:55:48;;;;;;;;;;;;;;;24.74;60.04;99037.41;4343306;32;20043;-93
2022/06/09 05:58:15;;;;;;;;;;;;;;;24.65;59.79;99037.91;4343337;32;20117;-90
2022/06/09 06:00:48;;;;;;;;;;;;;;;24.69;60.31;99036.81;4347281;32;20031;-85
2022/06/09 06:03:16;;;;;;;;;;;;;;;24.54;61.14;99025.28;4325968;33;20376;-85
2022/06/09 06:08:29;;;;;;;;;;;;;;;24.92;60.64;99035.56;4332400;32;20006;-85
2022/06/09 06:10:56;;;;;;;;;;;;;;;25.08;57.31;99034.69;4335086;33;19976;-84
2022/06/09 06:13:23;;;;;;;;;;;;;;;25.03;58.65;99043.75;4344617;32;20455;-85
2022/06/09 06:15:51;;;;;;;;;;;;;;;24.92;58.33;99046.16;4324156;33;19975;-88
2022/06/09 06:18:17;;;;;;;;;;;;;;;25.03;58.10;99053.47;4326308;33;19992;-87
2022/06/09 06:20:44;;;;;;;;;;;;;;;24.94;58.07;99049.56;4322429;33;20003;-87
2022/06/09 06:23:11;;;;;;;;;;;;;;;24.99;57.82;99049.31;4348501;32;19979;-89
2022/06/09 06:25:38;;;;;;;;;;;;;;;24.97;57.43;99052.03;4320642;32;19983;-87
2022/06/09 06:28:05;;;;;;;;;;;;;;;24.69;58.86;99059.78;4333533;32;20067;-87
2022/06/09 06:30:32;;;;;;;;;;;;;;;24.90;58.12;99053.31;4323549;33;19995;-88
2022/06/09 06:32:59;;;;;;;;;;;;;;;24.80;57.68;99044.19;4316768;33;20696;-88
2022/06/09 06:35:26;;;;;;;;;;;;;;;24.63;58.23;99054.81;4322375;33;20054;-88
2022/06/09 06:37:53;;;;;;;;;;;;;;;24.62;59.13;99045.19;4348750;32;19983;-88
2022/06/09 06:40:20;;;;;;;;;;;;;;;24.81;57.57;99037.94;4346418;32;20051;-87
2022/06/09 06:42:47;;;;;;;;;;;;;;;24.62;58.19;99047.81;4324399;33;20035;-93
2022/06/09 06:45:15;;;;;;;;;;;;;;;24.81;57.88;99053.81;4324680;33;20023;-88
2022/06/09 06:47:41;;;;;;;;;;;;;;;24.86;57.29;99056.22;4344961;32;20043;-89
2022/06/09 06:50:09;;;;;;;;;;;;;;;24.87;57.95;99052.62;4328330;32;19991;-90
2022/06/09 06:52:36;;;;;;;;;;;;;;;24.66;58.59;99044.91;4339035;32;20000;-89
2022/06/09 06:55:04;;;;;;;;;;;;;;;24.64;59.32;99051.25;4328297;33;20853;-88
2022/06/09 06:57:31;;;;;;;;;;;;;;;24.70;59.43;99042.97;4326036;33;20302;-88
2022/06/09 06:59:58;;;;;;;;;;;;;;;24.87;58.94;99045.53;4338165;32;19995;-88
2022/06/09 07:02:25;;;;;;;;;;;;;;;24.80;59.42;99049.47;4334237;32;20036;-88
2022/06/09 07:05:13;;;;;;;;;;;;;;;24.91;58.33;99060.31;4331119;32;19972;-88
2022/06/09 07:07:40;;;;;;;;;;;;;;;24.88;58.27;99071.06;4323705;33;19984;-88
2022/06/09 07:10:07;;;;;;;;;;;;;;;24.71;59.38;99071.16;4342009;32;20007;-91
2022/06/09 07:12:34;;;;;;;;;;;;;;;24.50;61.22;99073.13;4335887;33;20282;-92
2022/06/09 07:15:01;;;;;;;;;;;;;;;24.86;57.98;99066.81;4321190;33;20052;-89
2022/06/09 07:17:28;;;;;;;;;;;;;;;24.73;58.55;99077.19;4342257;32;20333;-91
2022/06/09 07:19:55;;;;;;;;;;;;;;;24.66;59.72;99083.75;4353842;32;20026;-90
2022/06/09 07:22:22;;;;;;;;;;;;;;;24.42;59.61;99076.22;4373406;32;20502;-86
2022/06/09 07:24:49;;;;;;;;;;;;;;;24.57;59.93;99059.53;4350676;32;19990;-87
2022/06/09 07:27:16;;;;;;;;;;;;;;;24.37;60.78;99059.69;4351801;32;19983;-85
2022/06/09 07:29:43;;;;;;;;;;;;;;;24.55;60.77;99058.75;4349436;32;20038;-89
2022/06/09 07:32:10;;;;;;;;;;;;;;;24.44;60.72;99061.13;4354507;32;20087;-88
2022/06/09 07:34:42;;;;;;;;;;;;;;;24.51;60.25;99067.78;4371437;32;19976;-92
2022/06/09 07:37:14;;;;;;;;;;;;;;;24.34;61.31;99065.13;4350244;32;20062;-89
2022/06/09 07:39:41;;;;;;;;;;;;;;;24.28;61.40;99068.09;4363001;32;20031;-87
2022/06/09 07:42:09;;;;;;;;;;;;;;;24.23;62.23;99065.72;4344490;32;20037;-91
2022/06/09 07:44:36;;;;;;;;;;;;;;;24.28;62.66;99066.34;4345679;32;19991;-91
2022/06/09 07:47:05;;;;;;;;;;;;;;;24.45;62.09;99070.75;4355629;32;20877;-89
2022/06/09 07:49:32;;;;;;;;;;;;;;;24.49;61.64;99074.09;4378435;32;20058;-89
2022/06/09 07:51:58;;;;;;;;;;;;;;;24.76;62.19;99077.03;4354946;32;20029;-90
2022/06/09 07:54:26;;;;;;;;;;;;;;;24.96;60.86;99063.56;4378507;32;19979;-91
2022/06/09 07:56:52;;;;;;;;;;;;;;;25.01;59.87;99061.50;4353395;32;20043;-89
2022/06/09 07:59:20;;;;;;;;;;;;;;;25.19;58.56;99064.09;4353822;32;20919;-91
2022/06/09 08:01:47;;;;;;;;;;;;;;;24.80;60.38;99062.72;4355177;32;19983;-92
2022/06/09 08:04:15;;;;;;;;;;;;;;;25.03;61.63;99062.28;4372706;32;20794;-92
2022/06/09 08:06:42;;;;;;;;;;;;;;;25.06;62.16;99059.47;4368988;32;19980;-93
2022/06/09 08:09:10;;;;;;;;;;;;;;;25.46;60.09;99065.19;4368594;32;20005;-94
2022/06/09 08:11:37;;;;;;;;;;;;;;;25.54;60.09;99059.44;4341579;32;20360;-93
2022/06/09 08:14:04;;;;;;;;;;;;;;;25.84;59.46;99067.41;4353488;32;20003;-96
2022/06/09 08:16:32;;;;;;;;;;;;;;;25.96;56.10;99061.38;4368462;32;20003;-93
2022/06/09 08:18:59;;;;;;;;;;;;;;;26.15;57.95;99061.13;4356439;32;20006;-93
2022/06/09 08:21:26;;;;;;;;;;;;;;;26.22;55.09;99056.31;4380724;32;20003;-88
2022/06/09 08:24:11;;;;;;;;;;;;;;;26.02;58.17;99061.97;4352377;32;20349;-91
2022/06/09 08:26:38;;;;;;;;;;;;;;;26.02;58.70;99054.03;4372463;32;19975;-93
2022/06/09 08:29:05;;;;;;;;;;;;;;;26.12;56.67;99057.81;4342158;32;19987;-90
2022/06/09 08:31:32;;;;;;;;;;;;;;;25.81;56.86;99049.03;4352326;32;20467;-94
2022/06/09 08:33:59;;;;;;;;;;;;;;;26.05;53.43;99056.50;4366456;32;19975;-95
2022/06/09 08:36:25;;;;;;;;;;;;;;;26.11;55.58;99046.38;4356944;32;19960;-96
2022/06/09 08:38:54;;;;;;;;;;;;;;;26.15;56.41;99049.69;4370540;32;19955;-96
2022/06/09 08:41:33;;;;;;;;;;;;;;;26.16;55.94;99056.69;4359841;32;19987;-96
2022/06/09 08:44:17;;;;;;;;;;;;;;;26.29;56.08;99051.47;4380153;32;19971;-94
2022/06/09 08:46:51;;;;;;;;;;;;;;;26.19;54.78;99051.19;4379558;32;20356;-93
2022/06/09 08:49:27;;;;;;;;;;;;;;;26.17;56.06;99053.94;4381227;32;20037;-94
2022/06/09 08:51:55;;;;;;;;;;;;;;;26.15;56.17;99049.69;4380526;32;19991;-93
2022/06/09 08:54:27;;;;;;;;;;;;;;;26.56;55.43;99048.97;4380298;32;19989;-93
2022/06/09 08:56:53;;;;;;;;;;;;;;;26.21;55.56;99049.31;4379612;32;20043;-93
2022/06/09 08:59:22;;;;;;;;;;;;;;;26.33;54.86;99048.56;4360433;32;19991;-92
2022/06/09 09:01:53;;;;;;;;;;;;;;;25.84;56.93;99048.84;4352810;32;20002;-90
2022/06/09 09:04:23;;;;;;;;;;;;;;;26.03;55.81;99050.41;4364388;32;19987;-90
2022/06/09 09:06:56;;;;;;;;;;;;;;;26.16;55.30;99054.03;4364945;32;19976;-94
2022/06/09 09:09:24;;;;;;;;;;;;;;;26.35;55.08;99040.50;4349618;32;19993;-92
2022/06/09 09:11:55;;;;;;;;;;;;;;;26.18;54.64;99038.88;4352646;32;19988;-93
2022/06/09 09:14:29;;;;;;;;;;;;;;;25.94;54.62;99042.09;4352147;32;19988;-92
2022/06/09 09:16:59;;;;;;;;;;;;;;;25.96;56.25;99034.03;4366807;32;20004;-91
2022/06/09 09:19:42;;;;;;;;;;;;;;;26.02;55.64;99038.09;4335225;32;20050;-92
2022/06/09 09:22:09;;;;;;;;;;;;;;;26.16;56.27;99030.16;4371065;32;20042;-92
2022/06/09 09:24:39;;;;;;;;;;;;;;;25.94;55.41;99026.16;4024239;32;10004017;-93
2022/06/09 09:27:17;;;;;;;;;;;;;;;25.73;53.64;99030.06;4313589;33;20025;-92
2022/06/09 09:29:51;;;;;;;;;;;;;;;25.84;55.05;99029.44;4305664;33;20045;-92
2022/06/09 09:32:19;;;;;;;;;;;;;;;26.18;53.75;99033.56;4354021;32;20408;-90
2022/06/09 09:34:47;;;;;;;;;;;;;;;26.18;55.04;99020.31;4364198;32;19983;-91
2022/06/09 09:37:33;;;;;;;;;;;;;;;26.49;53.22;99010.50;4344866;32;20432;-90
2022/06/09 09:40:19;;;;;;;;;;;;;;;27.03;54.41;99016.75;4340074;32;19984;-93
2022/06/09 09:42:46;;;;;;;;;;;;;;;27.01;52.16;99017.78;4348083;32;20000;-91
2022/06/09 09:45:15;;;;;;;;;;;;;;;27.39;51.75;99030.41;4371798;32;19997;-89
2022/06/09 09:47:44;;;;;;;;;;;;;;;27.36;50.70;99021.66;4376383;32;20005;-90
2022/06/09 09:50:23;;;;;;;;;;;;;;;27.42;53.67;99016.91;4372613;32;20250;-89
2022/06/09 09:52:55;;;;;;;;;;;;;;;27.08;52.02;99019.09;4355895;32;19991;-90
2022/06/09 09:55:28;;;;;;;;;;;;;;;26.75;53.32;99017.66;4372074;32;19999;-92
2022/06/09 09:58:13;;;;;;;;;;;;;;;27.45;52.70;99022.03;4340190;33;20001;-92
2022/06/09 10:00:40;;;;;;;;;;;;;;;27.30;54.52;99027.38;4346542;32;19998;-93
2022/06/09 10:09:09;;;;;;;;;;;;;;;28.31;47.71;99005.53;4346086;32;19980;-89
2022/06/09 10:11:56;;;;;;;;;;;;;;;28.58;46.81;99003.59;4366965;32;20894;-89
2022/06/09 10:14:41;;;;;;;;;;;;;;;28.74;48.77;98992.69;4361478;32;20558;-92
2022/06/09 10:17:26;;;;;;;;;;;;;;;29.24;46.63;98992.63;4347370;32;20391;-93
2022/06/09 10:20:21;;;;;;;;;;;;;;;29.57;45.52;98984.75;4348823;32;19993;-93
2022/06/09 10:23:01;;;;;;;;;;;;;;;29.05;44.05;98990.50;4350147;32;20144;-93
2022/06/09 10:25:48;;;;;;;;;;;;;;;28.90;46.13;98998.59;4333821;32;19994;-93
2022/06/09 10:28:34;;;;;;;;;;;;;;;28.66;45.87;98987.06;4333881;32;20063;-93
2022/06/09 10:31:04;;;;;;;;;;;;;;;28.74;45.92;98996.19;4334750;32;20002;-94
2022/06/09 10:33:43;;;;;;;;;;;;;;;28.53;46.44;98995.09;4356102;32;20033;-93
2022/06/09 10:36:15;;;;;;;;;;;;;;;28.26;46.06;99004.03;4356826;32;20005;-91
2022/06/09 10:38:43;;;;;;;;;;;;;;;27.97;47.40;99002.56;4356284;32;20562;-87
2022/06/09 10:41:12;;;;;;;;;;;;;;;28.13;48.68;99002.34;4356137;32;19983;-92
2022/06/09 10:44:08;;;;;;;;;;;;;;;28.12;48.58;98990.00;4348190;32;20003;-91
2022/06/09 10:46:45;;;;;;;;;;;;;;;28.03;49.19;98991.50;4321026;33;20023;-86
2022/06/09 10:55:24;;;;;;;;;;;;;;;27.67;49.97;98974.44;4342039;32;20254;-93
2022/06/09 10:58:10;;;;;;;;;;;;;;;27.97;47.88;98952.84;4340737;32;20479;-92
2022/06/09 11:00:39;;;;;;;;;;;;;;;27.85;49.35;98952.84;4330702;33;19991;-94
2022/06/09 11:03:13;;;;;;;;;;;;;;;28.13;47.95;98957.09;4358235;32;19972;-93
2022/06/09 11:05:53;;;;;;;;;;;;;;;28.15;48.15;98958.72;4336833;32;19999;-94
2022/06/09 11:08:23;;;;;;;;;;;;;;;28.71;46.12;98966.28;4336251;32;19983;-93
2022/06/09 11:10:55;;;;;;;;;;;;;;;28.91;45.20;98959.50;4354793;32;19997;-93
2022/06/09 11:13:22;;;;;;;;;;;;;;;29.02;45.95;98950.75;4349345;32;20250;-93
2022/06/09 11:15:54;;;;;;;;;;;;;;;28.50;46.50;98956.22;4332604;32;19988;-89
2022/06/09 11:18:23;;;;;;;;;;;;;;;28.50;44.99;98948.22;4359772;32;20022;-94
2022/06/09 11:20:51;;;;;;;;;;;;;;;28.79;44.34;98947.09;4359619;32;20003;-94
2022/06/09 11:23:27;;;;;;;;;;;;;;;28.71;46.75;98945.81;4364485;32;19993;-92
2022/06/09 11:25:57;;;;;;;;;;;;;;;28.81;44.47;98937.16;4346033;32;20025;-92
2022/06/09 11:28:36;;;;;;;;;;;;;;;28.25;46.57;98922.50;4336257;32;20027;-93
2022/06/09 11:31:22;;;;;;;;;;;;;;;28.21;46.14;98915.69;4343260;32;20485;-94
2022/06/09 11:34:01;;;;;;;;;;;;;;;28.15;47.86;98916.13;4362339;32;19984;-93
2022/06/09 11:36:32;;;;;;;;;;;;;;;27.79;50.54;98919.56;4330653;32;19960;-95
2022/06/09 11:39:04;;;;;;;;;;;;;;;27.67;50.94;98915.91;4327310;33;20939;-87
2022/06/09 11:41:39;;;;;;;;;;;;;;;27.63;50.47;98914.41;4331595;33;19993;-91
2022/06/09 11:44:19;;;;;;;;;;;;;;;27.64;50.50;98916.13;4339809;32;20373;-89
2022/06/09 11:46:48;;;;;;;;;;;;;;;27.09;51.81;98915.38;4320666;32;802965;-92
2022/06/09 11:49:19;;;;;;;;;;;;;;;27.28;50.05;98911.50;4338755;32;19998;-92
2022/06/09 11:51:46;;;;;;;;;;;;;;;26.56;52.54;98905.63;4342786;32;19985;-92
2022/06/09 11:54:32;;;;;;;;;;;;;;;26.48;51.93;98914.06;4345326;32;20027;-92
2022/06/09 11:57:19;;;;;;;;;;;;;;;26.26;54.03;98914.56;4326635;33;19983;-91
2022/06/09 11:59:54;;;;;;;;;;;;;;;25.68;55.73;98923.44;4326483;33;19983;-93
2022/06/09 12:02:33;;;;;;;;;;;;;;;25.06;49.34;98984.47;4326502;33;20032;-89
2022/06/09 12:05:03;;;;;;;;;;;;;;;24.72;56.74;99043.72;4343071;32;19983;-90
2022/06/09 12:07:39;;;;;;;;;;;;;;;23.37;58.75;99108.78;4346010;32;19991;-93
2022/06/09 12:10:22;;;;;;;;;;;;;;;23.43;56.73;99092.63;4334990;32;20442;-93
2022/06/09 12:13:01;;;;;;;;;;;;;;;23.30;59.48;99043.97;4359216;32;20739;-93
2022/06/09 12:15:33;;;;;;;;;;;;;;;23.86;55.50;98979.50;4350060;32;19976;-90
2022/06/09 12:18:13;;;;;;;;;;;;;;;23.51;58.41;98957.53;4376680;32;20006;-94
2022/06/09 12:20:41;;;;;;;;;;;;;;;23.53;59.18;98956.50;4355498;32;19997;-94
2022/06/09 12:23:27;;;;;;;;;;;;;;;23.35;58.60;98965.37;4350134;32;20043;-92
2022/06/09 12:26:10;;;;;;;;;;;;;;;23.47;57.89;98977.09;4359706;32;19972;-93
2022/06/09 12:28:49;;;;;;;;;;;;;;;23.39;58.25;98985.44;4349183;32;19994;-91
2022/06/09 12:31:17;;;;;;;;;;;;;;;23.32;57.54;98981.38;4366304;32;20753;-95
2022/06/09 12:33:47;;;;;;;;;;;;;;;23.21;59.16;98988.03;4343352;32;20002;-93
2022/06/09 12:36:23;;;;;;;;;;;;;;;23.15;60.24;98993.63;4048748;32;10004511;-90
2022/06/09 12:38:51;;;;;;;;;;;;;;;23.23;59.01;98995.03;4311642;33;20346;-91
2022/06/09 12:41:31;;;;;;;;;;;;;;;23.06;61.05;98988.78;4324010;33;19988;-90
2022/06/09 12:43:59;;;;;;;;;;;;;;;23.22;62.06;98988.88;4334674;32;20042;-90
2022/06/09 12:46:27;;;;;;;;;;;;;;;23.04;62.76;98980.09;4317156;33;19992;-90
2022/06/09 12:48:55;;;;;;;;;;;;;;;23.39;62.18;98985.44;4345287;32;19980;-89
2022/06/09 12:51:32;;;;;;;;;;;;;;;23.30;61.25;98972.69;4348030;32;20048;-91
2022/06/09 12:54:04;;;;;;;;;;;;;;;23.42;61.69;98974.69;4321597;33;20344;-91
2022/06/09 12:56:39;;;;;;;;;;;;;;;23.59;61.36;98972.06;4323788;33;19987;-87
2022/06/09 12:59:25;;;;;;;;;;;;;;;23.77;60.15;98974.69;4317439;33;19984;-87
2022/06/09 13:01:55;;;;;;;;;;;;;;;23.87;60.37;98992.66;4324040;33;20655;-90
2022/06/09 13:04:22;;;;;;;;;;;;;;;23.85;61.02;98993.69;4322460;33;20042;-90
2022/06/09 13:06:50;;;;;;;;;;;;;;;23.93;60.82;98994.16;4324257;33;20051;-89
2022/06/09 13:09:20;;;;;;;;;;;;;;;23.89;60.59;98989.94;4324799;33;19991;-89
2022/06/09 13:14:39;;;;;;;;;;;;;;;23.95;59.00;98979.03;4324941;33;19987;-88
2022/06/09 13:17:07;;;;;;;;;;;;;;;23.74;62.00;98974.84;4321191;33;19983;-87
2022/06/09 13:19:35;;;;;;;;;;;;;;;24.32;57.68;98971.78;4324857;33;19976;-86
2022/06/09 13:22:04;;;;;;;;;;;;;;;24.81;56.02;98963.81;4325588;32;20035;-87
2022/06/09 13:24:35;;;;;;;;;;;;;;;25.08;54.91;98955.22;4375394;32;20069;-87
2022/06/09 13:27:02;;;;;;;;;;;;;;;25.05;55.90;98956.28;4370523;32;19998;-87